sensor_id;sensor_type;location;lat;lon;timestamp;pressure;altitude;pressure_sealevel;temperature;humidity
64827;BME280;51265;53.972;12.286;2023-06-14T00:00:00;101237.91;;;11.68;100.00
64827;BME280;51265;53.972;12.286;2023-06-14T00:02:27;101233.84;;;11.60;100.00
64827;BME280;51265;53.972;12.286;2023-06-14T00:04:53;101233.09;;;11.55;100.00
64827;BME280;51265;53.972;12.286;2023-06-14T00:07:22;101228.44;;;11.50;100.00
64827;BME280;51265;53.972;12.286;2023-06-14T00:09:59;101228.72;;;11.48;100.00
64827;BME280;51265;53.972;12.286;2023-06-14T00:12:25;101229.00;;;11.47;100.00
64827;BME280;51265;53.972;12.286;2023-06-14T00:14:52;101222.94;;;11.45;100.00
64827;BME280;51265;53.972;12.286;2023-06-14T00:17:18;101235.66;;;11.46;100.00
64827;BME280;51265;53.972;12.286;2023-06-14T00:19:44;101223.19;;;11.48;100.00
64827;BME280;51265;53.972;12.286;2023-06-14T00:22:10;101226.25;;;11.47;100.00
64827;BME280;51265;53.972;12.286;2023-06-14T00:24:38;101217.72;;;11.43;100.00
64827;BME280;51265;53.972;12.286;2023-06-14T00:27:04;101221.56;;;11.47;100.00
64827;BME280;51265;53.972;12.286;2023-06-14T00:29:31;101225.44;;;11.46;100.00
64827;BME280;51265;53.972;12.286;2023-06-14T00:31:57;101230.59;;;11.53;100.00
64827;BME280;51265;53.972;12.286;2023-06-14T00:34:26;101229.78;;;11.53;100.00
64827;BME280;51265;53.972;12.286;2023-06-14T00:36:52;101239.16;;;11.52;100.00
64827;BME280;51265;53.972;12.286;2023-06-14T00:39:18;101243.50;;;11.58;100.00
64827;BME280;51265;53.972;12.286;2023-06-14T00:41:44;101243.06;;;11.51;100.00
64827;BME280;51265;53.972;12.286;2023-06-14T00:44:11;101248.56;;;11.51;100.00
64827;BME280;51265;53.972;12.286;2023-06-14T00:46:41;101238.09;;;11.47;100.00
64827;BME280;51265;53.972;12.286;2023-06-14T00:49:07;101247.00;;;11.39;100.00
64827;BME280;51265;53.972;12.286;2023-06-14T00:51:34;101253.69;;;11.33;100.00
64827;BME280;51265;53.972;12.286;2023-06-14T00:54:00;101248.16;;;11.33;100.00
64827;BME280;51265;53.972;12.286;2023-06-14T00:56:26;101247.41;;;11.22;100.00
64827;BME280;51265;53.972;12.286;2023-06-14T00:58:54;101242.81;;;11.13;100.00
64827;BME280;51265;53.972;12.286;2023-06-14T01:01:21;101241.22;;;11.02;100.00
64827;BME280;51265;53.972;12.286;2023-06-14T01:03:48;101243.22;;;10.96;100.00
64827;BME280;51265;53.972;12.286;2023-06-14T01:09:06;101251.75;;;10.94;100.00
64827;BME280;51265;53.972;12.286;2023-06-14T01:15:43;101254.75;;;10.98;100.00
64827;BME280;51265;53.972;12.286;2023-06-14T01:18:10;101265.53;;;11.00;100.00
64827;BME280;51265;53.972;12.286;2023-06-14T01:20:45;101266.84;;;11.41;100.00
64827;BME280;51265;53.972;12.286;2023-06-14T01:23:19;101262.22;;;11.32;100.00
64827;BME280;51265;53.972;12.286;2023-06-14T01:25:46;101263.66;;;11.29;100.00
64827;BME280;51265;53.972;12.286;2023-06-14T01:28:15;101257.66;;;11.17;100.00
64827;BME280;51265;53.972;12.286;2023-06-14T01:30:44;101261.09;;;11.04;100.00
64827;BME280;51265;53.972;12.286;2023-06-14T01:33:13;101264.44;;;10.95;100.00
64827;BME280;51265;53.972;12.286;2023-06-14T01:35:43;101263.94;;;10.88;100.00
64827;BME280;51265;53.972;12.286;2023-06-14T01:38:09;101266.16;;;10.81;100.00
64827;BME280;51265;53.972;12.286;2023-06-14T01:40:36;101270.56;;;10.82;100.00
64827;BME280;51265;53.972;12.286;2023-06-14T01:43:03;101279.56;;;10.98;100.00
64827;BME280;51265;53.972;12.286;2023-06-14T01:45:30;101272.34;;;11.07;100.00
64827;BME280;51265;53.972;12.286;2023-06-14T01:47:57;101266.75;;;11.17;100.00
64827;BME280;51265;53.972;12.286;2023-06-14T01:50:28;101267.13;;;11.06;100.00
64827;BME280;51265;53.972;12.286;2023-06-14T01:52:54;101267.41;;;11.04;100.00
64827;BME280;51265;53.972;12.286;2023-06-14T01:55:20;101278.69;;;11.08;100.00
64827;BME280;51265;53.972;12.286;2023-06-14T01:57:47;101278.16;;;11.06;100.00
64827;BME280;51265;53.972;12.286;2023-06-14T02:00:14;101285.88;;;11.04;100.00
64827;BME280;51265;53.972;12.286;2023-06-14T02:02:41;101284.50;;;11.01;100.00
64827;BME280;51265;53.972;12.286;2023-06-14T02:05:08;101279.00;;;11.01;100.00
64827;BME280;51265;53.972;12.286;2023-06-14T02:07:34;101291.09;;;11.05;100.00
64827;BME280;51265;53.972;12.286;2023-06-14T02:10:01;101289.72;;;11.08;100.00
64827;BME280;51265;53.972;12.286;2023-06-14T02:12:27;101291.84;;;11.21;100.00
64827;BME280;51265;53.972;12.286;2023-06-14T02:14:53;101286.22;;;11.31;100.00
64827;BME280;51265;53.972;12.286;2023-06-14T02:17:20;101285.88;;;11.43;100.00
64827;BME280;51265;53.972;12.286;2023-06-14T02:19:46;101288.91;;;11.41;100.00
64827;BME280;51265;53.972;12.286;2023-06-14T02:22:12;101284.94;;;11.53;100.00
64827;BME280;51265;53.972;12.286;2023-06-14T02:24:41;101288.31;;;11.50;100.00
64827;BME280;51265;53.972;12.286;2023-06-14T02:27:08;101286.94;;;11.47;100.00
64827;BME280;51265;53.972;12.286;2023-06-14T02:29:36;101285.66;;;11.34;100.00
64827;BME280;51265;53.972;12.286;2023-06-14T02:32:04;101275.28;;;11.21;100.00
64827;BME280;51265;53.972;12.286;2023-06-14T02:34:31;101278.06;;;11.16;100.00
64827;BME280;51265;53.972;12.286;2023-06-14T02:36:57;101284.22;;;11.08;100.00
64827;BME280;51265;53.972;12.286;2023-06-14T02:39:23;101280.91;;;11.06;100.00
64827;BME280;51265;53.972;12.286;2023-06-14T02:41:49;101292.47;;;11.08;100.00
64827;BME280;51265;53.972;12.286;2023-06-14T02:44:19;101295.28;;;10.97;100.00
64827;BME280;51265;53.972;12.286;2023-06-14T02:46:45;101293.13;;;10.89;100.00
64827;BME280;51265;53.972;12.286;2023-06-14T02:49:12;101293.94;;;10.90;100.00
64827;BME280;51265;53.972;12.286;2023-06-14T02:51:38;101295.34;;;10.87;100.00
64827;BME280;51265;53.972;12.286;2023-06-14T02:54:04;101295.63;;;10.86;100.00
64827;BME280;51265;53.972;12.286;2023-06-14T02:56:30;101299.19;;;10.91;100.00
64827;BME280;51265;53.972;12.286;2023-06-14T02:58:57;101300.78;;;10.97;100.00
64827;BME280;51265;53.972;12.286;2023-06-14T03:01:25;101302.69;;;11.02;100.00
64827;BME280;51265;53.972;12.286;2023-06-14T03:04:03;101301.00;;;11.06;100.00
64827;BME280;51265;53.972;12.286;2023-06-14T03:06:32;101299.94;;;11.02;100.00
64827;BME280;51265;53.972;12.286;2023-06-14T03:09:00;101298.81;;;11.03;100.00
64827;BME280;51265;53.972;12.286;2023-06-14T03:11:31;101308.97;;;11.13;100.00
64827;BME280;51265;53.972;12.286;2023-06-14T03:13:58;101296.22;;;11.22;100.00
64827;BME280;51265;53.972;12.286;2023-06-14T03:16:26;101292.84;;;11.30;100.00
64827;BME280;51265;53.972;12.286;2023-06-14T03:18:55;101300.00;;;11.31;100.00
64827;BME280;51265;53.972;12.286;2023-06-14T03:21:23;101300.06;;;11.26;100.00
64827;BME280;51265;53.972;12.286;2023-06-14T03:23:57;101297.88;;;11.23;100.00
64827;BME280;51265;53.972;12.286;2023-06-14T03:26:24;101293.47;;;11.22;100.00
64827;BME280;51265;53.972;12.286;2023-06-14T03:28:52;101302.88;;;11.21;100.00
64827;BME280;51265;53.972;12.286;2023-06-14T03:31:20;101302.88;;;11.21;100.00
64827;BME280;51265;53.972;12.286;2023-06-14T03:33:46;101300.91;;;11.21;100.00
64827;BME280;51265;53.972;12.286;2023-06-14T03:36:13;101298.13;;;11.27;100.00
64827;BME280;51265;53.972;12.286;2023-06-14T03:38:40;101299.44;;;11.34;100.00
64827;BME280;51265;53.972;12.286;2023-06-14T03:41:06;101291.94;;;11.40;100.00
64827;BME280;51265;53.972;12.286;2023-06-14T03:43:32;101304.00;;;11.49;100.00
64827;BME280;51265;53.972;12.286;2023-06-14T03:46:00;101302.31;;;11.53;100.00
64827;BME280;51265;53.972;12.286;2023-06-14T03:48:28;101311.84;;;11.66;100.00
64827;BME280;51265;53.972;12.286;2023-06-14T03:50:54;101312.34;;;11.73;100.00
64827;BME280;51265;53.972;12.286;2023-06-14T03:53:21;101313.13;;;11.84;100.00
64827;BME280;51265;53.972;12.286;2023-06-14T03:55:50;101316.66;;;11.89;100.00
64827;BME280;51265;53.972;12.286;2023-06-14T03:58:18;101312.94;;;12.04;100.00
64827;BME280;51265;53.972;12.286;2023-06-14T04:00:46;101310.94;;;12.10;100.00
64827;BME280;51265;53.972;12.286;2023-06-14T04:03:12;101306.22;;;12.10;100.00
64827;BME280;51265;53.972;12.286;2023-06-14T04:05:41;101313.06;;;12.18;100.00
64827;BME280;51265;53.972;12.286;2023-06-14T04:08:08;101313.53;;;12.25;100.00
64827;BME280;51265;53.972;12.286;2023-06-14T04:10:36;101314.22;;;12.12;100.00
64827;BME280;51265;53.972;12.286;2023-06-14T04:13:02;101309.38;;;11.99;100.00
64827;BME280;51265;53.972;12.286;2023-06-14T04:15:30;101313.56;;;11.96;100.00
64827;BME280;51265;53.972;12.286;2023-06-14T04:17:58;101308.44;;;11.84;100.00
64827;BME280;51265;53.972;12.286;2023-06-14T04:20:25;101324.16;;;11.79;100.00
64827;BME280;51265;53.972;12.286;2023-06-14T04:22:52;101324.56;;;11.67;100.00
64827;BME280;51265;53.972;12.286;2023-06-14T04:25:19;101327.31;;;11.67;100.00
64827;BME280;51265;53.972;12.286;2023-06-14T04:27:46;101323.41;;;11.73;100.00
64827;BME280;51265;53.972;12.286;2023-06-14T04:30:13;101326.06;;;11.88;100.00
64827;BME280;51265;53.972;12.286;2023-06-14T04:32:46;101326.44;;;12.06;100.00
64827;BME280;51265;53.972;12.286;2023-06-14T04:35:13;101328.44;;;12.24;100.00
64827;BME280;51265;53.972;12.286;2023-06-14T04:37:42;101339.25;;;12.44;100.00
64827;BME280;51265;53.972;12.286;2023-06-14T04:40:10;101338.44;;;12.68;100.00
64827;BME280;51265;53.972;12.286;2023-06-14T04:42:37;101331.75;;;12.93;100.00
64827;BME280;51265;53.972;12.286;2023-06-14T04:45:07;101335.28;;;13.17;100.00
64827;BME280;51265;53.972;12.286;2023-06-14T04:47:34;101335.75;;;13.43;100.00
64827;BME280;51265;53.972;12.286;2023-06-14T04:50:01;101329.44;;;13.57;100.00
64827;BME280;51265;53.972;12.286;2023-06-14T04:52:30;101328.06;;;13.73;100.00
64827;BME280;51265;53.972;12.286;2023-06-14T04:54:57;101326.78;;;13.84;100.00
64827;BME280;51265;53.972;12.286;2023-06-14T04:57:25;101323.81;;;13.94;100.00
64827;BME280;51265;53.972;12.286;2023-06-14T04:59:53;101325.59;;;14.18;100.00
64827;BME280;51265;53.972;12.286;2023-06-14T05:02:25;101312.88;;;14.44;100.00
64827;BME280;51265;53.972;12.286;2023-06-14T05:04:53;101315.19;;;14.56;100.00
64827;BME280;51265;53.972;12.286;2023-06-14T05:07:20;101312.50;;;14.65;100.00
64827;BME280;51265;53.972;12.286;2023-06-14T05:09:51;101317.19;;;14.78;100.00
64827;BME280;51265;53.972;12.286;2023-06-14T05:12:17;101320.88;;;14.87;100.00
64827;BME280;51265;53.972;12.286;2023-06-14T05:14:45;101319.13;;;15.05;100.00
64827;BME280;51265;53.972;12.286;2023-06-14T05:17:11;101313.00;;;15.17;100.00
64827;BME280;51265;53.972;12.286;2023-06-14T05:19:37;101312.56;;;15.24;100.00
64827;BME280;51265;53.972;12.286;2023-06-14T05:22:04;101309.25;;;15.35;100.00
64827;BME280;51265;53.972;12.286;2023-06-14T05:24:30;101317.03;;;15.47;100.00
64827;BME280;51265;53.972;12.286;2023-06-14T05:26:58;101313.44;;;15.69;100.00
64827;BME280;51265;53.972;12.286;2023-06-14T05:29:25;101312.94;;;15.89;100.00
64827;BME280;51265;53.972;12.286;2023-06-14T05:31:51;101309.22;;;16.03;100.00
64827;BME280;51265;53.972;12.286;2023-06-14T05:34:18;101305.34;;;16.12;100.00
64827;BME280;51265;53.972;12.286;2023-06-14T05:36:44;101297.94;;;16.30;100.00
64827;BME280;51265;53.972;12.286;2023-06-14T05:39:10;101304.66;;;16.47;100.00
64827;BME280;51265;53.972;12.286;2023-06-14T05:41:36;101300.44;;;16.58;97.80
64827;BME280;51265;53.972;12.286;2023-06-14T05:44:03;101298.19;;;16.60;96.84
64827;BME280;51265;53.972;12.286;2023-06-14T05:46:29;101305.44;;;16.78;96.05
64827;BME280;51265;53.972;12.286;2023-06-14T05:48:55;101301.41;;;16.93;94.75
64827;BME280;51265;53.972;12.286;2023-06-14T05:51:22;101305.00;;;17.11;92.58
64827;BME280;51265;53.972;12.286;2023-06-14T05:53:50;101286.69;;;17.18;91.13
64827;BME280;51265;53.972;12.286;2023-06-14T05:56:17;101291.72;;;17.25;90.11
64827;BME280;51265;53.972;12.286;2023-06-14T05:58:44;101278.47;;;17.39;89.02
64827;BME280;51265;53.972;12.286;2023-06-14T06:01:11;101286.97;;;17.60;87.75
64827;BME280;51265;53.972;12.286;2023-06-14T06:03:37;101289.06;;;17.72;86.74
64827;BME280;51265;53.972;12.286;2023-06-14T06:06:04;101279.22;;;17.83;86.02
64827;BME280;51265;53.972;12.286;2023-06-14T06:08:30;101285.09;;;17.99;85.31
64827;BME280;51265;53.972;12.286;2023-06-14T06:10:57;101283.72;;;18.14;84.24
64827;BME280;51265;53.972;12.286;2023-06-14T06:13:23;101276.97;;;18.24;83.78
64827;BME280;51265;53.972;12.286;2023-06-14T06:15:49;101281.34;;;18.33;82.81
64827;BME280;51265;53.972;12.286;2023-06-14T06:18:15;101278.34;;;18.38;82.05
64827;BME280;51265;53.972;12.286;2023-06-14T06:20:42;101276.06;;;18.40;81.53
64827;BME280;51265;53.972;12.286;2023-06-14T06:23:09;101274.56;;;18.43;81.36
64827;BME280;51265;53.972;12.286;2023-06-14T06:25:36;101276.38;;;18.48;80.96
64827;BME280;51265;53.972;12.286;2023-06-14T06:28:03;101261.25;;;18.49;79.15
64827;BME280;51265;53.972;12.286;2023-06-14T06:30:29;101262.47;;;18.60;78.61
64827;BME280;51265;53.972;12.286;2023-06-14T06:32:55;101260.91;;;18.80;78.64
64827;BME280;51265;53.972;12.286;2023-06-14T06:35:21;101254.88;;;18.99;76.96
64827;BME280;51265;53.972;12.286;2023-06-14T06:37:48;101236.66;;;19.13;75.78
64827;BME280;51265;53.972;12.286;2023-06-14T06:40:14;101236.88;;;19.29;74.78
64827;BME280;51265;53.972;12.286;2023-06-14T06:42:41;101234.03;;;19.50;73.51
64827;BME280;51265;53.972;12.286;2023-06-14T06:45:11;101221.88;;;19.67;71.91
64827;BME280;51265;53.972;12.286;2023-06-14T06:47:37;101229.13;;;19.93;71.58
64827;BME280;51265;53.972;12.286;2023-06-14T06:50:04;101211.19;;;19.94;69.97
64827;BME280;51265;53.972;12.286;2023-06-14T06:52:30;101216.56;;;19.86;69.90
64827;BME280;51265;53.972;12.286;2023-06-14T06:54:57;101209.06;;;19.66;69.63
64827;BME280;51265;53.972;12.286;2023-06-14T06:57:23;101219.56;;;19.69;70.42
64827;BME280;51265;53.972;12.286;2023-06-14T06:59:49;101214.19;;;19.76;69.34
64827;BME280;51265;53.972;12.286;2023-06-14T07:02:18;101221.94;;;20.16;68.99
64827;BME280;51265;53.972;12.286;2023-06-14T07:04:44;101216.44;;;20.44;67.02
64827;BME280;51265;53.972;12.286;2023-06-14T07:07:10;101201.63;;;20.56;66.02
64827;BME280;51265;53.972;12.286;2023-06-14T07:09:36;101194.63;;;20.74;64.84
64827;BME280;51265;53.972;12.286;2023-06-14T07:12:02;101180.31;;;20.92;63.59
64827;BME280;51265;53.972;12.286;2023-06-14T07:14:29;101187.06;;;21.03;63.50
64827;BME280;51265;53.972;12.286;2023-06-14T07:16:56;101180.72;;;21.06;63.49
64827;BME280;51265;53.972;12.286;2023-06-14T07:19:22;101186.09;;;21.27;62.53
64827;BME280;51265;53.972;12.286;2023-06-14T07:21:48;101197.22;;;21.51;62.29
64827;BME280;51265;53.972;12.286;2023-06-14T07:24:14;101183.31;;;21.71;61.20
64827;BME280;51265;53.972;12.286;2023-06-14T07:26:41;101170.56;;;21.73;59.92
64827;BME280;51265;53.972;12.286;2023-06-14T07:29:07;101158.81;;;21.83;58.34
64827;BME280;51265;53.972;12.286;2023-06-14T07:31:33;101160.63;;;21.92;58.37
64827;BME280;51265;53.972;12.286;2023-06-14T07:33:59;101147.50;;;21.96;57.92
64827;BME280;51265;53.972;12.286;2023-06-14T07:36:25;101146.31;;;21.97;57.28
64827;BME280;51265;53.972;12.286;2023-06-14T07:38:52;101140.13;;;22.07;56.47
64827;BME280;51265;53.972;12.286;2023-06-14T07:41:18;101133.53;;;22.15;56.15
64827;BME280;51265;53.972;12.286;2023-06-14T07:43:44;101115.56;;;22.16;54.25
64827;BME280;51265;53.972;12.286;2023-06-14T07:46:10;101106.38;;;22.19;54.19
64827;BME280;51265;53.972;12.286;2023-06-14T07:48:37;101134.50;;;22.38;55.54
64827;BME280;51265;53.972;12.286;2023-06-14T07:51:03;101118.84;;;22.57;54.56
64827;BME280;51265;53.972;12.286;2023-06-14T07:53:29;101104.81;;;22.57;53.36
64827;BME280;51265;53.972;12.286;2023-06-14T07:55:56;101096.53;;;22.64;53.24
64827;BME280;51265;53.972;12.286;2023-06-14T07:58:23;101099.50;;;22.91;53.42
64827;BME280;51265;53.972;12.286;2023-06-14T08:00:49;101089.97;;;22.95;52.78
64827;BME280;51265;53.972;12.286;2023-06-14T08:03:15;101073.00;;;23.11;51.69
64827;BME280;51265;53.972;12.286;2023-06-14T08:05:42;101063.69;;;23.07;51.20
64827;BME280;51265;53.972;12.286;2023-06-14T08:08:08;101044.25;;;22.56;50.84
64827;BME280;51265;53.972;12.286;2023-06-14T08:10:34;101040.41;;;22.25;50.95
64827;BME280;51265;53.972;12.286;2023-06-14T08:13:00;101043.97;;;22.06;51.23
64827;BME280;51265;53.972;12.286;2023-06-14T08:15:26;101072.50;;;22.28;51.97
64827;BME280;51265;53.972;12.286;2023-06-14T08:17:53;101090.50;;;22.62;52.06
64827;BME280;51265;53.972;12.286;2023-06-14T08:20:19;101088.41;;;22.98;51.47
64827;BME280;51265;53.972;12.286;2023-06-14T08:22:45;101081.81;;;23.32;51.33
64827;BME280;51265;53.972;12.286;2023-06-14T08:25:13;101095.63;;;23.64;51.35
64827;BME280;51265;53.972;12.286;2023-06-14T08:27:39;101083.31;;;23.99;50.28
64827;BME280;51265;53.972;12.286;2023-06-14T08:30:06;101074.38;;;24.20;49.45
64827;BME280;51265;53.972;12.286;2023-06-14T08:32:34;101047.72;;;24.40;48.16
64827;BME280;51265;53.972;12.286;2023-06-14T08:35:00;101055.81;;;24.75;47.53
64827;BME280;51265;53.972;12.286;2023-06-14T08:37:26;101047.00;;;24.80;47.48
64827;BME280;51265;53.972;12.286;2023-06-14T08:40:27;101021.84;;;24.61;46.23
64827;BME280;51265;53.972;12.286;2023-06-14T08:42:56;101007.13;;;24.78;45.72
64827;BME280;51265;53.972;12.286;2023-06-14T08:45:23;101017.63;;;24.81;46.65
64827;BME280;51265;53.972;12.286;2023-06-14T08:47:50;101018.25;;;25.01;45.95
64827;BME280;51265;53.972;12.286;2023-06-14T08:50:24;100999.16;;;25.28;44.73
64827;BME280;51265;53.972;12.286;2023-06-14T08:52:54;100994.53;;;25.50;44.05
64827;BME280;51265;53.972;12.286;2023-06-14T08:55:23;100987.28;;;25.53;43.65
64827;BME280;51265;53.972;12.286;2023-06-14T08:57:57;100972.41;;;25.08;43.96
64827;BME280;51265;53.972;12.286;2023-06-14T09:00:25;100976.38;;;25.03;43.74
64827;BME280;51265;53.972;12.286;2023-06-14T09:02:52;100982.22;;;25.21;43.64
64827;BME280;51265;53.972;12.286;2023-06-14T09:05:24;100964.34;;;25.06;43.53
64827;BME280;51265;53.972;12.286;2023-06-14T09:07:51;100984.00;;;25.44;43.57
64827;BME280;51265;53.972;12.286;2023-06-14T09:10:18;100963.84;;;25.45;43.24
64827;BME280;51265;53.972;12.286;2023-06-14T09:12:45;100960.53;;;25.32;42.80
64827;BME280;51265;53.972;12.286;2023-06-14T09:15:11;100948.13;;;25.41;42.53
64827;BME280;51265;53.972;12.286;2023-06-14T09:17:38;100946.88;;;25.34;42.47
64827;BME280;51265;53.972;12.286;2023-06-14T09:20:07;100965.66;;;25.71;42.07
64827;BME280;51265;53.972;12.286;2023-06-14T09:22:37;100967.81;;;25.96;41.14
64827;BME280;51265;53.972;12.286;2023-06-14T09:25:04;100957.53;;;26.43;40.03
64827;BME280;51265;53.972;12.286;2023-06-14T09:27:31;100958.41;;;27.00;39.63
64827;BME280;51265;53.972;12.286;2023-06-14T09:29:58;100945.06;;;26.58;39.34
64827;BME280;51265;53.972;12.286;2023-06-14T09:32:24;100913.66;;;25.72;39.29
64827;BME280;51265;53.972;12.286;2023-06-14T09:34:51;100909.09;;;25.46;39.17
64827;BME280;51265;53.972;12.286;2023-06-14T09:37:30;100917.09;;;25.33;40.16
64827;BME280;51265;53.972;12.286;2023-06-14T09:39:58;100943.69;;;25.40;40.61
64827;BME280;51265;53.972;12.286;2023-06-14T09:42:24;100912.81;;;25.06;40.18
64827;BME280;51265;53.972;12.286;2023-06-14T09:44:53;100918.34;;;24.92;39.91
64827;BME280;51265;53.972;12.286;2023-06-14T09:47:24;100916.03;;;25.08;39.70
64827;BME280;51265;53.972;12.286;2023-06-14T09:49:51;100907.06;;;24.92;39.81
64827;BME280;51265;53.972;12.286;2023-06-14T09:52:21;100912.28;;;24.90;39.88
64827;BME280;51265;53.972;12.286;2023-06-14T09:54:48;100910.00;;;24.58;40.25
64827;BME280;51265;53.972;12.286;2023-06-14T09:57:21;100942.34;;;24.78;41.12
64827;BME280;51265;53.972;12.286;2023-06-14T09:59:48;100960.06;;;25.23;40.95
64827;BME280;51265;53.972;12.286;2023-06-14T10:02:26;100947.91;;;25.67;39.68
64827;BME280;51265;53.972;12.286;2023-06-14T10:05:04;100940.84;;;26.02;39.20
64827;BME280;51265;53.972;12.286;2023-06-14T10:07:53;100947.41;;;26.38;39.39
64827;BME280;51265;53.972;12.286;2023-06-14T10:10:19;100930.94;;;26.58;38.08
64827;BME280;51265;53.972;12.286;2023-06-14T10:12:58;100925.69;;;26.56;37.81
64827;BME280;51265;53.972;12.286;2023-06-14T10:15:40;100935.00;;;26.75;38.55
64827;BME280;51265;53.972;12.286;2023-06-14T10:18:12;100924.09;;;26.91;38.00
64827;BME280;51265;53.972;12.286;2023-06-14T10:21:32;100916.03;;;27.04;37.25
64827;BME280;51265;53.972;12.286;2023-06-14T10:24:04;100911.19;;;26.72;37.40
64827;BME280;51265;53.972;12.286;2023-06-14T10:26:32;100907.97;;;27.02;37.02
64827;BME280;51265;53.972;12.286;2023-06-14T10:29:07;100928.16;;;27.22;37.47
64827;BME280;51265;53.972;12.286;2023-06-14T10:31:49;100955.16;;;27.73;37.98
64827;BME280;51265;53.972;12.286;2023-06-14T10:34:26;100960.19;;;28.28;37.16
64827;BME280;51265;53.972;12.286;2023-06-14T10:39:27;100914.75;;;28.57;35.40
64827;BME280;51265;53.972;12.286;2023-06-14T10:41:55;100875.41;;;28.00;35.97
64827;BME280;51265;53.972;12.286;2023-06-14T10:46:48;100900.69;;;27.26;36.67
64827;BME280;51265;53.972;12.286;2023-06-14T10:49:44;100924.63;;;28.20;35.47
64827;BME280;51265;53.972;12.286;2023-06-14T10:52:13;100936.31;;;28.33;35.42
64827;BME280;51265;53.972;12.286;2023-06-14T10:57:33;100884.34;;;28.61;34.00
64827;BME280;51265;53.972;12.286;2023-06-14T11:00:00;100882.50;;;28.29;34.50
64827;BME280;51265;53.972;12.286;2023-06-14T11:05:42;100875.56;;;27.57;35.48
64827;BME280;51265;53.972;12.286;2023-06-14T11:10:51;100869.03;;;27.78;34.24
64827;BME280;51265;53.972;12.286;2023-06-14T11:13:27;100861.13;;;27.23;34.69
64827;BME280;51265;53.972;12.286;2023-06-14T11:15:54;100848.63;;;26.56;35.41
64827;BME280;51265;53.972;12.286;2023-06-14T11:18:22;100876.47;;;26.57;36.33
64827;BME280;51265;53.972;12.286;2023-06-14T11:20:53;100904.72;;;27.25;35.96
64827;BME280;51265;53.972;12.286;2023-06-14T11:23:21;100921.13;;;27.98;34.97
64827;BME280;51265;53.972;12.286;2023-06-14T11:25:51;100921.34;;;28.33;34.80
64827;BME280;51265;53.972;12.286;2023-06-14T11:28:17;100908.78;;;28.41;34.30
64827;BME280;51265;53.972;12.286;2023-06-14T11:30:45;100858.22;;;27.55;34.30
64827;BME280;51265;53.972;12.286;2023-06-14T11:33:17;100836.88;;;27.00;34.82
64827;BME280;51265;53.972;12.286;2023-06-14T11:35:44;100871.59;;;27.08;35.07
64827;BME280;51265;53.972;12.286;2023-06-14T11:38:11;100892.19;;;27.34;34.88
64827;BME280;51265;53.972;12.286;2023-06-14T11:40:38;100875.66;;;27.21;35.08
64827;BME280;51265;53.972;12.286;2023-06-14T11:43:04;100866.78;;;26.83;35.25
64827;BME280;51265;53.972;12.286;2023-06-14T11:45:31;100893.31;;;27.68;35.04
64827;BME280;51265;53.972;12.286;2023-06-14T11:47:58;100903.19;;;28.26;34.66
64827;BME280;51265;53.972;12.286;2023-06-14T11:50:26;100891.44;;;28.24;34.31
64827;BME280;51265;53.972;12.286;2023-06-14T11:52:56;100869.84;;;27.78;34.00
64827;BME280;51265;53.972;12.286;2023-06-14T11:55:23;100867.56;;;27.30;35.14
64827;BME280;51265;53.972;12.286;2023-06-14T11:57:50;100885.34;;;27.35;35.51
64827;BME280;51265;53.972;12.286;2023-06-14T12:00:17;100906.53;;;28.00;34.77
64827;BME280;51265;53.972;12.286;2023-06-14T12:02:52;100918.59;;;28.85;33.82
64827;BME280;51265;53.972;12.286;2023-06-14T12:05:20;100880.63;;;28.71;33.35
64827;BME280;51265;53.972;12.286;2023-06-14T12:07:47;100869.34;;;28.68;33.44
64827;BME280;51265;53.972;12.286;2023-06-14T12:10:14;100861.41;;;28.41;33.96
64827;BME280;51265;53.972;12.286;2023-06-14T12:12:40;100880.78;;;28.50;34.11
64827;BME280;51265;53.972;12.286;2023-06-14T12:15:09;100893.94;;;29.26;33.05
64827;BME280;51265;53.972;12.286;2023-06-14T12:17:38;100900.41;;;29.99;32.58
64827;BME280;51265;53.972;12.286;2023-06-14T12:20:12;100893.94;;;30.29;32.20
64827;BME280;51265;53.972;12.286;2023-06-14T12:22:59;100863.31;;;29.83;32.41
64827;BME280;51265;53.972;12.286;2023-06-14T12:25:35;100850.16;;;29.27;33.25
64827;BME280;51265;53.972;12.286;2023-06-14T12:28:06;100836.97;;;29.10;32.78
64827;BME280;51265;53.972;12.286;2023-06-14T12:30:34;100849.63;;;29.40;32.67
64827;BME280;51265;53.972;12.286;2023-06-14T12:33:02;100843.31;;;29.21;32.66
64827;BME280;51265;53.972;12.286;2023-06-14T12:35:28;100812.91;;;28.36;32.94
64827;BME280;51265;53.972;12.286;2023-06-14T12:37:55;100813.34;;;27.50;34.28
64827;BME280;51265;53.972;12.286;2023-06-14T12:40:22;100830.41;;;27.07;34.69
64827;BME280;51265;53.972;12.286;2023-06-14T12:42:49;100853.84;;;27.04;35.45
64827;BME280;51265;53.972;12.286;2023-06-14T12:45:15;100909.34;;;28.07;35.06
64827;BME280;51265;53.972;12.286;2023-06-14T12:47:42;100931.91;;;29.36;34.22
64827;BME280;51265;53.972;12.286;2023-06-14T12:50:08;100936.28;;;30.47;32.36
64827;BME280;51265;53.972;12.286;2023-06-14T12:52:34;100915.53;;;31.47;31.19
64827;BME280;51265;53.972;12.286;2023-06-14T12:55:05;100901.03;;;32.38;30.34
64827;BME280;51265;53.972;12.286;2023-06-14T12:57:31;100868.78;;;32.24;30.03
64827;BME280;51265;53.972;12.286;2023-06-14T12:59:59;100817.44;;;31.12;30.30